Time;durP1;ratioP1;P1;durP2;ratioP2;P2;SDS_P1;SDS_P2;PMS_P1;PMS_P2;Temp;Humidity;BMP_temperature;BMP_pressure;BME280_temperature;BME280_humidity;BME280_pressure;Samples;Min_cycle;Max_cycle;Signal;HPM_P1;HPM_P2
2021/11/06 00:01:52;;;;;;;1.98;1.02;;;17.70;71.50;;;;;;10371173;28;20096;-48
2021/11/06 00:06:54;;;;;;;1.92;1.08;;;17.70;71.50;;;;;;10357292;28;20042;-48
2021/11/06 00:11:55;;;;;;;3.25;1.20;;;17.70;71.40;;;;;;10376697;28;20034;-49
2021/11/06 00:16:55;;;;;;;1.52;0.68;;;17.70;71.40;;;;;;10378727;28;20112;-48
2021/11/06 00:21:56;;;;;;;1.60;0.73;;;17.60;71.50;;;;;;10378755;28;20534;-47
2021/11/06 00:26:57;;;;;;;1.58;0.90;;;17.60;71.50;;;;;;10378565;28;20161;-47
2021/11/06 00:31:58;;;;;;;3.42;1.15;;;17.70;71.40;;;;;;10347473;28;20030;-49
2021/11/06 00:36:58;;;;;;;1.67;0.90;;;17.70;71.10;;;;;;10341612;28;20030;-47
2021/11/06 00:42:00;;;;;;;2.17;0.95;;;17.80;71.00;;;;;;10344536;28;20049;-51
2021/11/06 00:47:01;;;;;;;2.45;1.05;;;17.70;70.90;;;;;;10342511;28;20129;-48
2021/11/06 00:52:02;;;;;;;1.98;0.73;;;17.70;71.00;;;;;;10350838;28;20397;-48
2021/11/06 00:57:03;;;;;;;2.08;0.90;;;17.70;71.10;;;;;;10345105;28;20096;-48
2021/11/06 01:02:04;;;;;;;2.85;0.82;;;17.70;71.00;;;;;;10347415;28;20061;-48
2021/11/06 01:07:05;;;;;;;2.53;0.98;;;17.70;71.00;;;;;;10376149;28;20038;-48
2021/11/06 01:12:06;;;;;;;1.85;0.82;;;17.70;71.00;;;;;;10353801;28;20049;-48
2021/11/06 01:17:07;;;;;;;1.83;0.90;;;17.60;71.00;;;;;;10338161;28;20034;-48
2021/11/06 01:22:07;;;;;;;2.55;1.10;;;17.80;70.90;;;;;;10346092;28;20422;-48
2021/11/06 01:27:11;;;;;;;1.55;0.60;;;17.70;70.80;;;;;;10349300;28;20111;-49
2021/11/06 01:32:12;;;;;;;1.70;0.90;;;17.60;70.90;;;;;;10342112;28;20101;-49
2021/11/06 01:37:13;;;;;;;1.73;0.85;;;17.70;70.80;;;;;;10347155;28;20478;-48
2021/11/06 01:42:13;;;;;;;2.55;0.88;;;17.70;70.70;;;;;;10340891;28;20046;-48
2021/11/06 01:47:14;;;;;;;1.10;0.65;;;17.70;70.60;;;;;;10339738;28;20042;-47
2021/11/06 01:52:16;;;;;;;1.88;0.80;;;17.80;70.40;;;;;;10337861;28;20062;-49
2021/11/06 01:57:17;;;;;;;2.17;0.73;;;17.80;70.30;;;;;;10339837;28;20026;-48
2021/11/06 02:02:18;;;;;;;1.02;0.57;;;17.70;70.40;;;;;;10362388;28;20029;-48
2021/11/06 02:07:19;;;;;;;2.67;0.98;;;17.70;70.60;;;;;;10364845;28;20105;-48
2021/11/06 02:12:20;;;;;;;2.00;0.90;;;17.70;70.50;;;;;;10353482;28;20034;-48
2021/11/06 02:17:21;;;;;;;1.17;0.52;;;17.70;70.40;;;;;;10344148;28;20033;-49
2021/11/06 02:22:21;;;;;;;1.52;0.90;;;17.70;70.50;;;;;;10374700;28;20038;-47
2021/11/06 02:27:22;;;;;;;1.77;0.80;;;17.70;70.60;;;;;;10374094;28;20033;-48
2021/11/06 02:32:23;;;;;;;1.33;0.65;;;17.70;70.40;;;;;;10373497;28;20041;-49
2021/11/06 02:37:25;;;;;;;1.17;0.80;;;17.70;70.40;;;;;;10373573;28;20026;-48
2021/11/06 02:42:25;;;;;;;2.25;0.70;;;17.70;70.10;;;;;;10372543;28;20528;-48
2021/11/06 02:47:26;;;;;;;2.38;0.73;;;17.80;69.90;;;;;;10373946;28;20087;-47
2021/11/06 02:52:27;;;;;;;1.38;0.70;;;17.80;69.90;;;;;;10372255;28;20057;-47
2021/11/06 02:57:29;;;;;;;1.55;0.90;;;17.70;70.00;;;;;;10373085;28;20108;-47
2021/11/06 03:02:30;;;;;;;1.13;0.70;;;17.70;70.20;;;;;;10373077;28;20445;-47
2021/11/06 03:07:31;;;;;;;1.45;0.80;;;17.70;70.10;;;;;;10372611;28;20120;-48
2021/11/06 03:12:32;;;;;;;0.98;0.57;;;17.70;70.00;;;;;;10348853;28;20113;-48
2021/11/06 03:17:33;;;;;;;1.00;0.77;;;17.70;70.20;;;;;;10337986;28;20062;-48
2021/11/06 03:22:34;;;;;;;1.13;0.70;;;17.70;70.20;;;;;;10332128;28;20034;-47
2021/11/06 03:27:35;;;;;;;1.42;0.68;;;17.70;70.00;;;;;;10335721;28;20084;-48
2021/11/06 03:32:36;;;;;;;2.45;0.90;;;17.80;69.80;;;;;;10357530;28;20027;-48
2021/11/06 03:37:37;;;;;;;2.20;0.88;;;17.90;69.70;;;;;;10342069;28;20557;-47
2021/11/06 03:42:39;;;;;;;1.40;0.70;;;17.80;69.60;;;;;;10373965;28;20141;-49
2021/11/06 03:47:40;;;;;;;2.33;0.90;;;17.70;69.80;;;;;;10362230;28;20026;-48
2021/11/06 03:52:41;;;;;;;1.98;0.93;;;17.80;69.70;;;;;;10339662;28;20105;-47
2021/11/06 03:57:41;;;;;;;1.33;0.77;;;17.80;69.60;;;;;;10343784;28;20076;-48
2021/11/06 04:02:43;;;;;;;1.30;0.85;;;17.70;69.70;;;;;;10339166;28;20046;-48
2021/11/06 04:07:44;;;;;;;2.05;0.80;;;17.80;69.80;;;;;;10371075;28;20037;-48
2021/11/06 04:12:45;;;;;;;2.63;1.48;;;17.80;69.70;;;;;;10355284;28;20026;-48
2021/11/06 04:17:46;;;;;;;1.38;0.85;;;17.70;69.60;;;;;;10377859;28;20030;-47
2021/11/06 04:22:50;;;;;;;1.92;1.02;;;17.80;69.70;;;;;;10378868;28;20112;-48
2021/11/06 04:27:51;;;;;;;1.70;0.95;;;17.80;69.60;;;;;;10378648;28;20037;-47
2021/11/06 04:32:52;;;;;;;1.98;1.10;;;17.70;69.50;;;;;;10378886;28;20148;-48
2021/11/06 04:37:52;;;;;;;1.38;0.82;;;17.80;69.80;;;;;;10378196;28;20048;-48
2021/11/06 04:42:53;;;;;;;2.45;0.93;;;17.70;69.50;;;;;;10378332;28;20054;-48
2021/11/06 04:47:54;;;;;;;1.50;0.73;;;17.80;69.60;;;;;;10377868;28;20382;-47
2021/11/06 04:52:55;;;;;;;1.38;0.80;;;17.70;69.70;;;;;;10361256;28;20038;-48
2021/11/06 04:57:55;;;;;;;1.58;0.88;;;17.80;69.50;;;;;;10336698;28;20105;-50
2021/11/06 05:02:56;;;;;;;1.30;0.70;;;17.70;69.30;;;;;;10342061;28;20069;-50
2021/11/06 05:07:57;;;;;;;1.80;1.00;;;17.80;69.40;;;;;;10370563;28;20054;-47
2021/11/06 05:12:58;;;;;;;1.73;0.95;;;17.70;69.40;;;;;;10359754;28;20097;-47
2021/11/06 05:17:59;;;;;;;3.13;1.10;;;17.80;69.50;;;;;;10338051;28;20035;-49
2021/11/06 05:23:00;;;;;;;1.95;1.10;;;17.80;69.40;;;;;;10376693;28;20026;-48
2021/11/06 05:28:00;;;;;;;1.70;0.80;;;17.80;69.40;;;;;;10375005;28;20088;-48
2021/11/06 05:33:01;;;;;;;1.77;0.98;;;17.70;69.40;;;;;;10364803;28;20117;-48
2021/11/06 05:38:02;;;;;;;2.22;1.25;;;17.70;69.50;;;;;;10358721;28;20041;-47
2021/11/06 05:43:03;;;;;;;1.67;1.13;;;17.80;69.30;;;;;;10360483;28;20037;-48
2021/11/06 05:48:04;;;;;;;1.35;0.90;;;17.90;68.80;;;;;;10357020;28;20037;-48
2021/11/06 05:53:05;;;;;;;2.17;1.20;;;18.10;68.40;;;;;;10359631;28;20026;-47
2021/11/06 05:58:05;;;;;;;1.88;0.80;;;18.20;68.10;;;;;;10368166;28;20163;-47
2021/11/06 06:03:06;;;;;;;1.63;0.90;;;18.20;67.90;;;;;;10373576;28;20034;-49
2021/11/06 06:08:08;;;;;;;3.33;1.48;;;18.30;67.60;;;;;;10373890;28;20030;-50
2021/11/06 06:13:08;;;;;;;3.00;0.95;;;18.30;68.60;;;;;;10345499;28;20037;-48
2021/11/06 06:18:10;;;;;;;4.93;1.52;;;18.20;68.80;;;;;;10332887;28;20664;-48
2021/11/06 06:23:11;;;;;;;7.00;1.20;;;18.10;68.70;;;;;;10343124;28;20038;-47
2021/11/06 06:28:11;;;;;;;3.67;1.63;;;18.10;69.90;;;;;;10338738;28;20113;-47
2021/11/06 06:33:12;;;;;;;4.00;1.60;;;18.30;69.80;;;;;;10347164;28;20119;-51
2021/11/06 06:38:13;;;;;;;3.25;1.38;;;18.40;69.80;;;;;;10353629;28;20026;-48
2021/11/06 06:43:13;;;;;;;2.53;1.55;;;18.40;69.60;;;;;;10354327;28;20120;-52
2021/11/06 06:48:14;;;;;;;2.92;1.15;;;18.50;69.30;;;;;;10332684;28;20368;-48
2021/11/06 06:53:16;;;;;;;6.10;1.50;;;18.50;69.90;;;;;;10365648;28;20038;-52
2021/11/06 06:58:18;;;;;;;4.82;2.10;;;18.60;68.90;;;;;;10369601;28;20029;-50
2021/11/06 07:03:18;;;;;;;8.45;2.05;;;18.70;68.20;;;;;;10370759;28;20418;-48
2021/11/06 07:08:23;;;;;;;4.72;1.35;;;18.80;67.70;;;;;;10365144;28;20041;-50
2021/11/06 07:13:24;;;;;;;4.97;1.92;;;18.90;67.20;;;;;;10356906;28;20030;-50
2021/11/06 07:18:25;;;;;;;6.75;1.75;;;18.90;66.90;;;;;;10332455;28;20042;-52
2021/11/06 07:23:25;;;;;;;6.07;2.20;;;19.00;66.70;;;;;;10340731;28;20054;-49
2021/11/06 07:28:27;;;;;;;11.60;2.30;;;19.00;66.50;;;;;;10338439;28;20038;-51
2021/11/06 07:33:28;;;;;;;11.48;2.88;;;19.00;67.00;;;;;;10343310;28;20114;-49
2021/11/06 07:38:29;;;;;;;14.25;2.45;;;18.90;67.30;;;;;;10363226;28;20581;-50
2021/11/06 07:43:30;;;;;;;10.27;2.58;;;18.90;67.40;;;;;;10369680;28;20390;-52
2021/11/06 07:48:31;;;;;;;8.98;2.15;;;18.90;67.60;;;;;;10370697;28;20038;-49
2021/11/06 07:53:32;;;;;;;9.25;2.72;;;18.90;67.60;;;;;;10372078;28;20108;-54
2021/11/06 07:58:33;;;;;;;15.32;3.53;;;18.90;67.60;;;;;;10370713;28;20084;-50
2021/11/06 08:03:34;;;;;;;10.93;3.92;;;18.80;67.90;;;;;;10359983;28;20038;-49
2021/11/06 08:08:34;;;;;;;20.88;5.47;;;18.60;67.40;;;;;;10357171;28;20057;-50
2021/11/06 08:13:35;;;;;;;8.55;3.25;;;18.50;66.20;;;;;;10361912;28;20049;-49
2021/11/06 08:18:36;;;;;;;15.45;4.07;;;18.70;66.60;;;;;;10370037;28;20076;-49
2021/11/06 08:23:37;;;;;;;14.55;3.70;;;18.90;66.30;;;;;;10369693;28;20034;-50
2021/11/06 08:28:38;;;;;;;14.13;4.63;;;18.80;66.50;;;;;;10369576;28;20038;-47
2021/11/06 08:33:38;;;;;;;12.05;4.07;;;18.60;66.20;;;;;;10372675;28;20034;-50
2021/11/06 08:38:39;;;;;;;10.07;4.35;;;18.70;66.90;;;;;;10363195;28;20040;-50
2021/11/06 08:43:40;;;;;;;14.07;4.03;;;18.70;66.70;;;;;;10376188;28;20420;-49
2021/11/06 08:48:40;;;;;;;11.20;3.60;;;18.70;66.70;;;;;;10378046;28;20037;-52
2021/11/06 08:53:41;;;;;;;10.02;3.72;;;18.60;67.10;;;;;;10377776;28;20070;-55
2021/11/06 08:58:43;;;;;;;13.23;3.22;;;18.50;67.40;;;;;;10366188;28;20035;-50
2021/11/06 09:03:43;;;;;;;9.98;2.95;;;18.40;68.00;;;;;;10369168;28;20045;-49
2021/11/06 09:08:46;;;;;;;9.55;3.10;;;18.20;68.40;;;;;;10376875;28;20034;-53
2021/11/06 09:13:51;;;;;;;9.25;3.72;;;18.30;68.30;;;;;;10352630;28;20041;-51
2021/11/06 09:18:53;;;;;;;7.50;3.22;;;18.40;67.80;;;;;;10372096;28;20045;-52
2021/11/06 09:23:54;;;;;;;11.32;3.45;;;18.50;67.50;;;;;;10363342;28;20033;-54
2021/11/06 09:28:55;;;;;;;8.77;2.60;;;18.50;67.40;;;;;;10358773;28;20020;-55
2021/11/06 09:33:56;;;;;;;12.40;3.28;;;18.60;67.20;;;;;;10359825;28;20112;-53
2021/11/06 09:38:57;;;;;;;8.10;3.10;;;18.60;66.90;;;;;;10365949;28;20037;-50
2021/11/06 09:43:58;;;;;;;5.28;2.50;;;18.60;66.90;;;;;;10375515;28;20398;-49
2021/11/06 09:49:00;;;;;;;9.52;2.92;;;18.60;67.10;;;;;;10336494;28;20041;-49
2021/11/06 09:54:05;;;;;;;6.80;2.70;;;18.50;66.80;;;;;;10338440;28;20125;-50
2021/11/06 09:59:06;;;;;;;8.73;2.78;;;18.60;67.10;;;;;;10373274;28;20486;-53
2021/11/06 10:04:08;;;;;;;8.00;2.53;;;18.60;67.20;;;;;;10372935;28;20556;-51
2021/11/06 10:09:09;;;;;;;9.43;2.90;;;18.60;67.10;;;;;;10373023;28;20058;-49
2021/11/06 10:14:25;;;;;;;6.15;2.50;;;18.50;66.70;;;;;;10353844;28;20529;-54
2021/11/06 10:19:33;;;;;;;8.02;3.78;;;18.60;66.40;;;;;;10371588;28;20477;-55
2021/11/06 10:24:57;;;;;;;9.38;3.08;;;18.70;65.70;;;;;;10355522;28;20121;-55
2021/11/06 10:30:13;;;;;;;5.97;2.72;;;18.70;65.30;;;;;;10346722;28;20030;-55
2021/11/06 10:35:19;;;;;;;7.20;3.03;;;18.70;64.90;;;;;;10355306;28;20034;-55
2021/11/06 10:40:20;;;;;;;10.63;4.15;;;18.70;64.20;;;;;;10343998;28;20041;-54
2021/11/06 10:45:26;;;;;;;8.02;2.80;;;18.70;64.00;;;;;;10360016;28;20514;-55
2021/11/06 10:50:43;;;;;;;4.97;2.60;;;18.80;64.00;;;;;;10369197;28;20045;-54
2021/11/06 10:55:45;;;;;;;7.32;2.90;;;19.00;63.40;;;;;;10372517;28;20116;-55
2021/11/06 11:00:59;;;;;;;6.68;2.85;;;19.10;63.10;;;;;;10373191;28;20077;-55
2021/11/06 11:06:10;;;;;;;5.85;3.05;;;19.10;63.00;;;;;;10372432;28;20092;-54
2021/11/06 11:11:12;;;;;;;6.55;3.70;;;19.10;62.80;;;;;;10362815;28;20038;-56
2021/11/06 11:16:15;;;;;;;12.13;4.72;;;19.10;62.40;;;;;;10357576;28;20030;-54
2021/11/06 11:21:30;;;;;;;8.98;4.57;;;19.00;63.10;;;;;;10333943;28;20541;-55
2021/11/06 11:26:44;;;;;;;15.82;6.00;;;19.10;63.40;;;;;;10369108;28;20044;-53
2021/11/06 11:31:46;;;;;;;12.27;6.00;;;19.00;63.90;;;;;;10358802;28;20136;-53
2021/11/06 11:36:48;;;;;;;15.65;6.20;;;19.00;63.50;;;;;;10366559;28;20031;-51
2021/11/06 11:42:35;;;;;;;13.77;6.28;;;19.00;63.80;;;;;;10354111;28;20398;-52
2021/11/06 11:48:09;;;;;;;14.57;5.53;;;19.00;63.40;;;;;;10351467;28;20029;-56
2021/11/06 11:53:23;;;;;;;12.20;5.38;;;19.10;63.60;;;;;;10363553;28;20029;-53
2021/11/06 11:58:33;;;;;;;13.93;4.90;;;19.10;63.70;;;;;;10345986;28;20068;-51
2021/11/06 12:03:43;;;;;;;16.17;6.00;;;19.10;63.90;;;;;;10364926;28;20132;-57
2021/11/06 12:08:44;;;;;;;14.88;6.55;;;19.10;64.20;;;;;;10370659;28;20095;-57
2021/11/06 12:13:51;;;;;;;20.95;6.57;;;19.00;64.30;;;;;;10361193;28;20048;-58
2021/11/06 12:18:56;;;;;;;14.63;5.85;;;18.80;65.10;;;;;;10345508;28;20092;-56
2021/11/06 12:24:09;;;;;;;13.60;5.55;;;18.60;65.50;;;;;;10368455;28;20394;-57
2021/11/06 12:29:10;;;;;;;14.00;5.50;;;18.40;66.00;;;;;;10369008;28;20660;-57
2021/11/06 12:34:46;;;;;;;13.55;5.75;;;18.30;66.40;;;;;;10374733;28;20034;-57
2021/11/06 12:39:55;;;;;;;11.27;4.95;;;18.30;66.60;;;;;;10373907;28;20065;-57
2021/11/06 12:44:59;;;;;;;14.73;4.80;;;18.20;66.90;;;;;;10343815;28;20046;-55
2021/11/06 12:50:16;;;;;;;12.02;4.15;;;18.20;67.20;;;;;;10335006;28;20561;-57
2021/11/06 12:55:17;;;;;;;12.52;5.30;;;18.10;67.20;;;;;;10353719;28;20099;-57
2021/11/06 13:00:35;;;;;;;10.02;4.20;;;18.20;67.30;;;;;;10339164;28;20058;-57
2021/11/06 13:05:43;;;;;;;9.30;4.40;;;18.10;67.20;;;;;;10362096;28;20096;-58
2021/11/06 13:10:46;;;;;;;11.10;4.93;;;18.20;67.40;;;;;;10344552;28;20022;-57
2021/11/06 13:15:50;;;;;;;10.27;3.85;;;18.30;67.00;;;;;;10357145;28;20092;-57
2021/11/06 13:20:55;;;;;;;7.35;4.00;;;18.30;66.90;;;;;;10336031;28;20085;-57
2021/11/06 13:25:56;;;;;;;10.75;3.55;;;18.30;66.90;;;;;;10340629;28;20377;-58
2021/11/06 13:31:01;;;;;;;7.20;3.58;;;18.40;66.70;;;;;;10375232;28;20112;-57
2021/11/06 13:36:13;;;;;;;14.77;4.35;;;18.40;66.80;;;;;;10375680;28;20053;-58
2021/11/06 13:41:21;;;;;;;8.02;3.42;;;18.40;66.80;;;;;;10361324;28;20517;-57
2021/11/06 13:46:34;;;;;;;9.55;4.18;;;18.40;66.90;;;;;;10369969;28;20096;-58
2021/11/06 13:51:52;;;;;;;10.98;4.20;;;18.30;67.60;;;;;;10374195;28;20034;-57
2021/11/06 13:57:21;;;;;;;6.63;3.58;;;18.30;67.20;;;;;;10369439;28;20092;-57
2021/11/06 14:02:28;;;;;;;9.30;4.10;;;18.30;67.20;;;;;;10374755;28;20156;-57
2021/11/06 14:07:33;;;;;;;11.98;2.65;;;18.40;67.00;;;;;;10374562;28;20038;-57
2021/11/06 14:12:41;;;;;;;7.75;3.35;;;18.40;66.90;;;;;;10355279;28;20474;-57
2021/11/06 14:17:52;;;;;;;7.03;2.95;;;18.30;67.00;;;;;;10369483;28;20485;-57
2021/11/06 14:22:53;;;;;;;6.05;3.13;;;18.40;67.00;;;;;;10374104;28;20034;-57
2021/11/06 14:28:12;;;;;;;8.15;3.65;;;18.40;66.90;;;;;;10369685;28;20030;-57
2021/11/06 14:33:33;;;;;;;6.73;3.33;;;18.40;67.00;;;;;;10373590;28;20113;-57
2021/11/06 14:38:57;;;;;;;5.75;2.53;;;18.40;66.90;;;;;;10372405;28;20037;-57
2021/11/06 14:44:06;;;;;;;8.18;3.05;;;18.40;66.80;;;;;;10373308;28;20117;-57
2021/11/06 14:49:07;;;;;;;5.10;2.50;;;18.40;66.90;;;;;;10373410;28;20418;-57
2021/11/06 14:54:08;;;;;;;4.97;2.60;;;18.40;66.90;;;;;;10372908;28;20037;-56
2021/11/06 14:59:09;;;;;;;6.03;2.47;;;18.40;66.80;;;;;;10373070;28;20038;-58
2021/11/06 15:04:10;;;;;;;4.85;2.50;;;18.40;66.90;;;;;;10372461;28;20045;-56
2021/11/06 15:09:10;;;;;;;6.40;2.50;;;18.40;66.90;;;;;;10372361;28;20049;-58
2021/11/06 15:14:11;;;;;;;7.05;2.47;;;18.40;66.80;;;;;;10345546;28;20062;-57
2021/11/06 15:19:12;;;;;;;5.43;2.53;;;18.40;66.80;;;;;;10331777;28;20034;-56
2021/11/06 15:24:15;;;;;;;4.85;2.10;;;18.40;67.50;;;;;;10340615;28;20495;-57
2021/11/06 15:29:21;;;;;;;4.10;1.90;;;18.40;66.80;;;;;;10331744;28;20078;-57
2021/11/06 15:34:21;;;;;;;5.57;2.25;;;18.40;66.80;;;;;;10335621;28;20041;-57
2021/11/06 15:39:22;;;;;;;5.03;2.13;;;18.40;66.90;;;;;;10337828;28;20037;-58
2021/11/06 15:44:24;;;;;;;5.03;2.20;;;18.40;66.80;;;;;;10353982;28;20120;-57
2021/11/06 15:49:24;;;;;;;3.10;1.98;;;18.40;66.90;;;;;;10380086;28;20545;-57
2021/11/06 15:54:25;;;;;;;4.40;2.13;;;18.40;66.90;;;;;;10370718;28;20030;-58
2021/11/06 15:59:26;;;;;;;4.25;2.05;;;18.40;66.80;;;;;;10339132;28;20423;-57
2021/11/06 16:04:27;;;;;;;4.40;2.03;;;18.40;66.90;;;;;;10347979;28;20565;-57
2021/11/06 16:09:27;;;;;;;5.40;2.05;;;18.40;66.90;;;;;;10379505;28;20073;-57
2021/11/06 16:14:28;;;;;;;3.47;1.40;;;18.40;66.80;;;;;;10347422;28;20032;-58
2021/11/06 16:19:31;;;;;;;4.10;1.83;;;18.40;66.80;;;;;;10343790;28;20026;-57
2021/11/06 16:24:33;;;;;;;3.83;1.65;;;18.40;66.90;;;;;;10361244;28;20478;-57
2021/11/06 16:29:34;;;;;;;3.45;1.60;;;18.40;66.80;;;;;;10377215;28;20041;-57
2021/11/06 16:34:35;;;;;;;2.60;1.42;;;18.40;66.80;;;;;;10378264;28;20105;-57
2021/11/06 16:39:36;;;;;;;3.75;2.10;;;18.40;66.90;;;;;;10378377;28;20038;-57
2021/11/06 16:44:36;;;;;;;4.07;2.03;;;18.40;66.80;;;;;;10378020;28;20121;-57
2021/11/06 16:49:37;;;;;;;4.00;2.25;;;18.40;66.70;;;;;;10374960;28;20026;-57
2021/11/06 16:54:38;;;;;;;3.30;1.58;;;18.40;66.80;;;;;;10377456;28;20068;-57
2021/11/06 16:59:38;;;;;;;3.38;1.75;;;18.40;66.80;;;;;;10377753;28;20034;-58
2021/11/06 17:04:41;;;;;;;4.13;1.73;;;18.40;66.60;;;;;;10377142;28;20116;-57
2021/11/06 17:09:55;;;;;;;4.13;1.70;;;18.40;66.80;;;;;;10356958;28;20118;-56
2021/11/06 17:14:56;;;;;;;3.60;1.40;;;18.40;66.80;;;;;;10374356;28;20095;-57
2021/11/06 17:19:57;;;;;;;3.08;1.60;;;18.40;66.70;;;;;;10376802;28;20068;-57
2021/11/06 17:24:57;;;;;;;3.47;1.63;;;18.40;66.80;;;;;;10376226;28;20605;-57
2021/11/06 17:29:58;;;;;;;2.95;1.60;;;18.40;66.90;;;;;;10360739;28;20169;-57
2021/11/06 17:34:59;;;;;;;2.95;1.50;;;18.40;66.70;;;;;;10335467;28;20045;-57
2021/11/06 17:40:00;;;;;;;3.60;1.40;;;18.40;66.70;;;;;;10339445;28;20043;-57
2021/11/06 17:45:01;;;;;;;3.45;1.90;;;18.40;66.90;;;;;;10339471;28;20047;-57
2021/11/06 17:50:22;;;;;;;2.47;1.38;;;18.40;66.70;;;;;;10336164;28;20036;-57
2021/11/06 17:55:23;;;;;;;2.35;1.10;;;18.40;66.80;;;;;;10337921;28;20037;-57
2021/11/06 18:00:25;;;;;;;2.20;1.42;;;18.40;66.90;;;;;;10355855;28;20040;-55
2021/11/06 18:05:26;;;;;;;3.10;1.50;;;18.40;66.70;;;;;;10373444;28;20141;-57
2021/11/06 18:10:27;;;;;;;3.90;1.70;;;18.40;66.70;;;;;;10369607;28;20109;-58
2021/11/06 18:15:29;;;;;;;3.20;1.23;;;18.40;66.60;;;;;;10371698;28;20057;-57
2021/11/06 18:20:29;;;;;;;2.47;1.60;;;18.40;66.20;;;;;;10356132;28;20030;-57
2021/11/06 18:25:30;;;;;;;4.35;1.98;;;18.40;66.20;;;;;;10346506;28;20340;-57
2021/11/06 18:30:31;;;;;;;4.68;1.80;;;18.40;66.40;;;;;;10369860;28;20473;-57
2021/11/06 18:35:33;;;;;;;4.10;1.95;;;18.40;66.30;;;;;;10366759;28;20084;-57
2021/11/06 18:40:34;;;;;;;4.85;2.13;;;18.40;66.60;;;;;;10373609;28;20150;-57
2021/11/06 18:45:36;;;;;;;6.18;1.85;;;18.40;66.80;;;;;;10372902;28;20057;-57
2021/11/06 18:50:38;;;;;;;5.78;2.40;;;18.30;66.90;;;;;;10367774;28;20076;-56
2021/11/06 18:55:40;;;;;;;6.13;1.77;;;18.30;67.20;;;;;;10349810;28;20091;-56
2021/11/06 19:00:41;;;;;;;5.13;2.13;;;18.30;67.20;;;;;;10350184;28;20038;-56
2021/11/06 19:05:42;;;;;;;5.30;2.10;;;18.40;67.00;;;;;;10345508;28;20039;-57
2021/11/06 19:10:44;;;;;;;4.45;1.50;;;18.40;67.00;;;;;;10343744;28;20049;-55
2021/11/06 19:15:45;;;;;;;6.63;1.63;;;18.40;67.20;;;;;;10337564;28;20046;-57
2021/11/06 19:20:52;;;;;;;5.22;1.73;;;18.50;67.30;;;;;;10346791;28;20421;-56
2021/11/06 19:25:56;;;;;;;4.95;1.90;;;18.50;67.20;;;;;;10359686;28;20109;-57
2021/11/06 19:30:58;;;;;;;4.47;1.83;;;18.50;67.30;;;;;;10360421;28;20064;-57
2021/11/06 19:35:59;;;;;;;4.38;1.50;;;18.40;67.50;;;;;;10369755;28;20422;-56
2021/11/06 19:41:00;;;;;;;6.63;2.28;;;18.40;67.80;;;;;;10371825;28;20065;-56
2021/11/06 19:46:02;;;;;;;5.05;1.52;;;18.30;68.00;;;;;;10371806;28;20034;-57
2021/11/06 19:51:03;;;;;;;2.70;1.50;;;18.20;68.20;;;;;;10370212;28;20462;-57
2021/11/06 19:56:04;;;;;;;6.10;2.08;;;18.30;68.30;;;;;;10371112;28;20109;-57
2021/11/06 20:01:05;;;;;;;8.00;1.52;;;18.30;68.00;;;;;;10363995;28;20041;-56
2021/11/06 20:06:06;;;;;;;3.83;1.77;;;18.30;68.00;;;;;;10350253;28;20189;-56
2021/11/06 20:11:06;;;;;;;4.32;1.90;;;18.30;68.90;;;;;;10368856;28;20410;-57
2021/11/06 20:16:07;;;;;;;5.18;1.85;;;18.20;68.40;;;;;;10366490;28;20026;-57
2021/11/06 20:21:08;;;;;;;4.03;1.45;;;18.20;68.60;;;;;;10363833;28;20122;-57
2021/11/06 20:26:09;;;;;;;5.68;1.85;;;18.10;68.80;;;;;;10345453;28;20030;-57
2021/11/06 20:31:10;;;;;;;5.13;1.73;;;18.10;68.80;;;;;;10347856;28;20487;-58
2021/11/06 20:36:11;;;;;;;3.83;1.35;;;17.90;69.10;;;;;;10350366;28;20038;-57
2021/11/06 20:41:12;;;;;;;3.83;1.90;;;17.90;69.40;;;;;;10350087;28;20035;-57
2021/11/06 20:46:13;;;;;;;4.95;1.67;;;17.90;69.60;;;;;;10367820;28;20479;-58
2021/11/06 20:51:14;;;;;;;3.22;1.48;;;17.80;69.70;;;;;;10377628;28;20025;-57
2021/11/06 20:56:15;;;;;;;7.07;1.60;;;17.70;69.80;;;;;;10377536;28;20033;-57
2021/11/06 21:01:16;;;;;;;4.60;1.65;;;17.70;69.80;;;;;;10377418;28;20113;-57
2021/11/06 21:06:16;;;;;;;2.95;1.50;;;17.70;70.00;;;;;;10377197;28;20029;-58
2021/11/06 21:11:45;;;;;;;2.75;1.23;;;17.70;70.00;;;;;;10362982;28;20092;-56
2021/11/06 21:21:46;;;;;;;2.22;1.30;;;17.60;70.70;;;;;;10364453;28;20049;-57
2021/11/06 21:26:47;;;;;;;2.45;1.27;;;17.60;70.20;;;;;;10376958;28;20034;-57
2021/11/06 21:31:48;;;;;;;3.33;1.63;;;17.50;70.20;;;;;;10376406;28;20045;-57
2021/11/06 21:36:52;;;;;;;4.57;1.73;;;17.50;70.20;;;;;;10376171;28;20474;-58
2021/11/06 21:41:56;;;;;;;3.75;1.40;;;17.50;70.30;;;;;;10374887;28;20029;-57
2021/11/06 21:46:56;;;;;;;3.20;1.25;;;17.50;70.40;;;;;;10375739;28;20073;-57
2021/11/06 21:51:57;;;;;;;8.32;1.73;;;17.50;70.40;;;;;;10375772;28;20057;-58
2021/11/06 21:56:59;;;;;;;2.92;1.40;;;17.40;70.30;;;;;;10375777;28;20029;-57
2021/11/06 22:02:00;;;;;;;3.40;1.40;;;17.40;70.40;;;;;;10374074;28;20037;-57
2021/11/06 22:07:01;;;;;;;3.17;1.55;;;17.40;70.40;;;;;;10374993;28;20630;-58
2021/11/06 22:12:02;;;;;;;3.67;1.55;;;17.40;70.40;;;;;;10372059;28;20030;-58
2021/11/06 22:17:03;;;;;;;3.13;1.35;;;17.40;70.40;;;;;;10373562;28;20037;-58
2021/11/06 22:22:05;;;;;;;2.47;1.20;;;17.40;70.40;;;;;;10344171;28;20034;-57
2021/11/06 22:27:05;;;;;;;2.33;0.93;;;17.40;70.30;;;;;;10353015;28;20368;-58
2021/11/06 22:32:07;;;;;;;2.92;1.08;;;17.50;70.10;;;;;;10374206;28;20120;-57
2021/11/06 22:37:08;;;;;;;2.03;0.90;;;17.50;69.90;;;;;;10372851;28;20080;-58
2021/11/06 22:42:09;;;;;;;2.13;1.23;;;17.50;69.70;;;;;;10372316;28;20429;-57
2021/11/06 22:47:10;;;;;;;1.77;1.00;;;17.50;69.80;;;;;;10363306;28;20077;-57
2021/11/06 22:52:11;;;;;;;2.72;1.50;;;17.50;69.80;;;;;;10370267;28;20034;-58
2021/11/06 22:57:19;;;;;;;1.98;1.33;;;17.50;69.70;;;;;;10373456;28;20037;-55
2021/11/06 23:02:40;;;;;;;2.05;1.08;;;17.50;69.60;;;;;;10362656;28;20041;-57
2021/11/06 23:07:43;;;;;;;2.38;1.13;;;17.60;69.70;;;;;;10359803;28;20041;-57
2021/11/06 23:12:46;;;;;;;2.35;1.33;;;17.60;69.40;;;;;;10350012;28;20033;-57
2021/11/06 23:17:48;;;;;;;3.63;1.15;;;17.60;69.20;;;;;;10372287;28;20045;-59
2021/11/06 23:22:50;;;;;;;1.75;0.75;;;17.70;69.20;;;;;;10364147;28;20079;-57
2021/11/06 23:27:51;;;;;;;3.80;1.27;;;17.70;69.30;;;;;;10372053;28;20047;-58
2021/11/06 23:32:53;;;;;;;3.55;1.20;;;17.60;69.40;;;;;;10372309;28;20026;-57
2021/11/06 23:37:54;;;;;;;2.05;1.00;;;17.50;69.50;;;;;;10371201;28;20436;-57
2021/11/06 23:42:56;;;;;;;2.38;1.25;;;17.60;69.70;;;;;;10330140;28;20054;-57
2021/11/06 23:48:00;;;;;;;2.30;1.17;;;17.60;69.40;;;;;;10330976;28;20623;-57
2021/11/06 23:53:06;;;;;;;1.50;0.90;;;17.60;69.40;;;;;;10372109;28;20116;-58
2021/11/06 23:58:12;;;;;;;1.45;1.00;;;17.60;69.40;;;;;;10372157;28;20037;-57
